Estación Meteorológica Peña el Pijo (Robertgarden) [ 02/03/23 03:58:20 CET ]

Fecha Hora Presion(HPa) Temp (°C) Humedad % Rocio (°C) Viento ( m/s) Direccion Lluvia 1Hora(mm) Lluvia 24H(mm) LLuvia Total(mm)
2010-Apr-20 01:01:15 1011.400 6.4 87 4.4         111.88
2010-Apr-20 02:01:14 1011.300 5.8 89 4.1         111.88
2010-Apr-20 03:05:15 1011.000 5.3 90 3.8         111.88
2010-Apr-20 04:01:13 1010.600 5.2 91 3.9         111.88
2010-Apr-20 05:01:12 1010.700 5.2 91 3.9         111.88
2010-Apr-20 06:01:14 1010.500 5.1 92 3.9         111.88
2010-Apr-20 07:01:11 1010.500 5.5 93 4.5         111.88
2010-Apr-20 08:01:11 1010.800 5.8 92 4.6         111.88
2010-Apr-20 09:01:11 1011.100 6.8 93 5.8         111.88
2010-Apr-20 10:01:13 1011.100 10.2 89 8.4         111.88
2010-Apr-20 11:01:12 1010.900 15.6 68 9.7         111.88
2010-Apr-20 12:01:17 1010.700 19.9 52 9.8         111.88
2010-Apr-20 13:01:13 1010.600 20.3 43 7.3 0.5 SW     111.88
2010-Apr-20 14:01:11 1010.200 19.3 46 7.3         111.88
2010-Apr-20 15:01:12 1010.100 19.4 48 8.1         111.88
2010-Apr-20 16:01:13 1009.800 18.6 49 7.7         111.88
2010-Apr-20 17:01:14 1009.900 18.6 49 7.7         111.88
2010-Apr-20 18:01:14 1009.900 17.4 51 7.1         111.88
2010-Apr-20 19:01:16 1010.000 17.4 52 7.4         111.88
2010-Apr-20 20:01:16 1009.900 17.1 54 7.7         111.88
2010-Apr-20 21:01:16 1010.400 14.1 67 8.0         111.88
2010-Apr-20 22:01:16 1011.200 11.6 75 7.3         111.88
2010-Apr-20 23:01:17 1011.900 9.3 81 6.2         111.88

Temperatura Máxima:20°    Temperatura Mínima:
Presión Máxima:1011.900 Hpa    Presión Mínima:1009.800 Hpa


Volver